Kenansville, NC

9:08 AM EDT on July 30, 2014 (GMT -0400)
Duplin County (KDPL) Elev 138 ft | 35.00 °N, 77.98 °W | Change Station

Current weather conditions updated 13 minutes ago

Clear
Clear
71 °F
Feels Like 71 °F
N
4
Wind Variable Wind from NNE

Today is forecast to be Warmer than yesterday.

Today
High -- | Low -- °F
--% Chance of Precip.
Yesterday
High -- | Low -- °F
Precip. -- in
6:19 AM 8:16 PM
Waxing Crescent, 11% visible
Pressure 30.06 in
Visibility 7.0 miles
Clouds Clear
Dew Point 66 °F
Humidity 84%
Rainfall 0.00 in
Snow Depth Not available.
UV 3 out of 12
Pollen 4.10 out of 12
Air Quality Not available.
Flu Activity Not available.
METAR KDPL 301255Z AUTO 03003KT 7SM CLR 22/19 A3006 RMK AO2 T02190191

More Conditions Fewer Conditions

Pressure 30.06 in
Visibility 7.0 miles
Clouds Clear
Dew Point 66 °F
Humidity 84%
Rainfall 0.00 in
Snow Depth Not available.
UV 3 out of 12
Pollen 4.10 out of 12
Air Quality Not available.
Flu Activity Not available.
METAR KDPL 301255Z AUTO 03003KT 7SM CLR 22/19 A3006 RMK AO2 T02190191

More Conditions Fewer Conditions

10-Day Weather Forecast

Almanac

Astronomy

Jul. 30, 2014 Rise Set
Actual Time 6:19 AM EDT 8:16 PM EDT
Civil Twilight 5:51 AM EDT 8:44 PM EDT
Nautical Twilight 5:17 AM EDT 9:17 PM EDT
Astronomical Twilight 4:41 AM EDT 9:54 PM EDT
Moon 9:39 AM EDT 10:08 PM EDT
Length of Visible Light 14h 52m
Length of Day
13h 56m
Tomorrow will be 1m 36s shorter.
Waxing Crescent, 11% of the Moon is Illuminated
Today
Waxing Crescent
Aug 3
First Quarter
Aug 10
Full
Aug 17
Last Quarter
Aug 25
New

Today's Extremes

State Highs State Lows

Community

WunderPhotos

Upload Photos

1,739,071 photos uploaded!

Nearby

Snow Depth

Station Depth Elevation
No new snow has been reported.

Earthquake Activity

City Distance Mag. Time & Date
No recent earthquake activity has been reported nearby.
Minimum magnitude displayed is 2.5.

Coastal Water Temperatures

Place Temperature
No Stations Reporting

Nearby Weather Stations

Station Location Temp. Heat Index Dew Point Humidity Wind Precip. Elev Updated Type
RAWS NC FIRE RAWS #3 NC, Kenansville, NC 64 °F - 64 °F 100% North  at  0 mph 0.00 in / hr 138 ft 7:49 AM EDT MADIS
Serenity Funeral Home, Beulaville NC, Beulaville, NC 74.5 °F 74 °F 69 °F 84% NE  at  5.1 mph 0.00 in / hr 72 ft 9:07 AM EDT Rapid Fire
River Landing, Wallace, NC 73.7 °F 71 °F 71 °F 92% NE  at  3.0 mph 0.00 in / hr 62 ft 8:53 AM EDT Normal
Wallace Town Hall, Wallace, NC 74.9 °F 75 °F 68 °F 80% East  at  3.0 mph 0.00 in / hr 56 ft 8:59 AM EDT Normal
Rural, farm country, Seven Springs, NC 71.2 °F - 68 °F 89% NE  at  0.0 mph 0.00 in / hr 154 ft 8:53 AM EDT Normal
KD4JRX HORSE BRANCH RD, WATHA, NC 80.2 °F 84 °F 72 °F 76% East  at  2.2 mph 0.00 in / hr 58 ft 9:07 AM EDT Rapid Fire
Goldsboro, Goldsboro, NC 70.5 °F - 67 °F 88% NE  at  5.0 mph 0.00 in / hr 105 ft 8:58 AM EDT Normal
Goldsboro, NC 70.3 °F - 65 °F 84% North  at  0.0 mph 0.00 in / hr 131 ft 9:04 AM EDT Normal

Show More Stations Show Fewer Stations